createdAt,value
2022-12-28T00:02:26.825Z,3.35
2022-12-28T00:04:54.875Z,3.63
2022-12-28T00:07:23.020Z,3.63
2022-12-28T00:09:51.022Z,4.13
2022-12-28T00:12:19.007Z,3.83
2022-12-28T00:14:47.064Z,3.67
2022-12-28T00:17:15.101Z,3.90
2022-12-28T00:19:44.552Z,3.22
2022-12-28T00:22:12.792Z,4.30
2022-12-28T00:24:40.826Z,4.60
2022-12-28T00:27:08.967Z,3.22
2022-12-28T00:29:37.033Z,3.08
2022-12-28T00:32:05.803Z,4.03
2022-12-28T00:34:33.845Z,3.45
2022-12-28T00:37:08.624Z,3.13
2022-12-28T00:39:39.595Z,3.47
2022-12-28T00:42:07.587Z,3.42
2022-12-28T00:44:35.808Z,3.88
2022-12-28T00:47:03.765Z,3.90
2022-12-28T00:49:31.925Z,2.90
2022-12-28T00:51:59.961Z,3.47
2022-12-28T00:54:33.889Z,4.65
2022-12-28T00:57:01.895Z,3.55
2022-12-28T00:59:29.878Z,3.22
2022-12-28T01:01:58.008Z,2.95
2022-12-28T01:04:26.297Z,3.42
2022-12-28T01:06:54.454Z,3.20
2022-12-28T01:09:22.595Z,3.70
2022-12-28T01:11:52.000Z,3.45
2022-12-28T01:14:20.039Z,3.90
2022-12-28T01:16:48.197Z,3.38
2022-12-28T01:19:20.176Z,3.88
2022-12-28T01:21:49.369Z,3.63
2022-12-28T01:24:17.556Z,4.07
2022-12-28T01:26:45.667Z,3.38
2022-12-28T01:29:15.032Z,3.67
2022-12-28T01:31:43.153Z,3.30
2022-12-28T01:34:11.221Z,3.28
2022-12-28T01:36:39.779Z,3.30
2022-12-28T01:39:08.024Z,3.33
2022-12-28T01:41:39.576Z,3.88
2022-12-28T01:44:40.968Z,3.60
2022-12-28T01:47:12.896Z,3.25
2022-12-28T01:49:44.506Z,3.67
2022-12-28T01:52:15.519Z,3.10
2022-12-28T01:54:46.011Z,2.97
2022-12-28T01:57:15.336Z,3.80
2022-12-28T01:59:52.033Z,4.00
2022-12-28T02:02:21.013Z,3.85
2022-12-28T02:04:49.628Z,3.38
2022-12-28T02:07:22.006Z,4.43
2022-12-28T02:10:41.028Z,3.35
2022-12-28T02:12:38.402Z,4.00
2022-12-28T02:15:08.926Z,3.75
2022-12-28T02:17:37.093Z,3.63
2022-12-28T02:20:06.840Z,4.18
2022-12-28T02:22:53.636Z,4.00
2022-12-28T02:25:58.008Z,4.05
2022-12-28T02:28:54.559Z,3.85
2022-12-28T02:31:26.841Z,4.20
2022-12-28T02:36:25.931Z,3.70
2022-12-28T02:38:56.882Z,3.88
2022-12-28T02:41:26.513Z,3.75
2022-12-28T02:43:56.334Z,3.58
2022-12-28T02:46:44.056Z,4.47
2022-12-28T02:49:36.624Z,3.75
2022-12-28T02:55:22.155Z,3.35
2022-12-28T02:58:12.698Z,3.63
2022-12-28T03:00:53.437Z,3.47
2022-12-28T03:03:24.638Z,3.75
2022-12-28T03:06:19.529Z,4.22
2022-12-28T03:08:54.815Z,3.90
2022-12-28T03:11:29.164Z,3.85
2022-12-28T03:14:02.625Z,4.03
2022-12-28T03:16:54.906Z,4.68
2022-12-28T03:19:42.441Z,3.95
2022-12-28T03:22:28.927Z,3.70
2022-12-28T03:25:16.061Z,3.78
2022-12-28T03:28:02.036Z,3.65
2022-12-28T03:30:48.837Z,4.00
2022-12-28T03:33:18.485Z,4.03
2022-12-28T03:35:50.349Z,4.10
2022-12-28T03:38:27.524Z,4.82
2022-12-28T03:41:02.174Z,5.03
2022-12-28T03:43:41.595Z,4.03
2022-12-28T03:46:15.248Z,4.18
2022-12-28T03:48:45.325Z,4.45
2022-12-28T03:51:16.022Z,4.68
2022-12-28T03:53:45.764Z,4.50
2022-12-28T03:56:15.562Z,3.78
2022-12-28T03:58:43.628Z,3.92
2022-12-28T04:01:12.493Z,5.40
2022-12-28T04:03:40.908Z,3.90
2022-12-28T04:06:12.892Z,4.38
2022-12-28T04:08:40.930Z,3.65
2022-12-28T04:11:09.571Z,4.03
2022-12-28T04:13:37.679Z,3.58
2022-12-28T04:16:08.974Z,4.43
2022-12-28T04:18:37.072Z,3.73
2022-12-28T04:21:05.383Z,3.67
2022-12-28T04:23:35.035Z,3.63
2022-12-28T04:26:05.909Z,3.42
2022-12-28T04:28:34.810Z,4.15
2022-12-28T04:31:03.591Z,4.05
2022-12-28T04:33:33.602Z,3.05
2022-12-28T04:36:06.602Z,3.60
2022-12-28T04:38:36.031Z,3.45
2022-12-28T04:41:05.339Z,3.45
2022-12-28T04:43:34.104Z,3.28
2022-12-28T04:46:03.415Z,3.20
2022-12-28T04:48:31.904Z,3.45
2022-12-28T04:51:00.178Z,4.20
2022-12-28T04:53:28.251Z,2.88
2022-12-28T04:55:59.606Z,3.00
2022-12-28T04:58:27.657Z,3.30
2022-12-28T05:00:55.723Z,2.97
2022-12-28T05:03:23.790Z,2.83
2022-12-28T05:05:51.820Z,3.00
2022-12-28T05:08:19.880Z,2.63
2022-12-28T05:10:47.860Z,2.75
2022-12-28T05:13:17.221Z,3.28
2022-12-28T05:15:45.286Z,3.10
2022-12-28T05:18:13.639Z,2.65
2022-12-28T05:20:41.597Z,2.70
2022-12-28T05:23:09.931Z,2.40
2022-12-28T05:25:37.990Z,3.28
2022-12-28T05:28:06.101Z,2.97
2022-12-28T05:30:35.573Z,2.90
2022-12-28T05:33:03.920Z,3.70
2022-12-28T05:35:31.909Z,2.40
2022-12-28T05:37:59.906Z,2.83
2022-12-28T05:40:27.949Z,2.00
2022-12-28T05:42:55.979Z,2.33
2022-12-28T05:45:24.038Z,2.25
2022-12-28T05:47:55.131Z,2.33
2022-12-28T05:50:23.113Z,1.83
2022-12-28T05:52:51.269Z,2.42
2022-12-28T05:55:19.323Z,1.88
2022-12-28T05:57:47.356Z,2.17
2022-12-28T06:00:15.912Z,2.10
2022-12-28T06:02:44.013Z,1.85
2022-12-28T06:05:14.215Z,1.80
2022-12-28T06:07:42.269Z,2.10
2022-12-28T06:10:10.709Z,1.77
2022-12-28T06:12:38.746Z,1.80
2022-12-28T06:15:07.944Z,2.00
2022-12-28T06:17:36.002Z,1.83
2022-12-28T06:20:04.165Z,2.00
2022-12-28T06:22:33.563Z,2.42
2022-12-28T06:25:01.647Z,1.67
2022-12-28T06:27:29.945Z,1.80
2022-12-28T06:29:58.213Z,2.30
2022-12-28T06:32:26.296Z,1.95
2022-12-28T06:34:54.322Z,2.70
2022-12-28T06:37:22.316Z,2.30
2022-12-28T06:39:51.661Z,1.85
2022-12-28T06:42:19.654Z,2.00
2022-12-28T06:44:47.600Z,2.17
2022-12-28T06:47:15.707Z,2.78
2022-12-28T06:49:43.791Z,3.08
2022-12-28T06:52:11.766Z,3.10
2022-12-28T06:54:39.896Z,2.78
2022-12-28T06:57:09.289Z,2.75
2022-12-28T06:59:37.310Z,3.15
2022-12-28T07:02:05.465Z,2.38
2022-12-28T07:04:33.660Z,2.70
2022-12-28T07:07:01.656Z,2.47
2022-12-28T07:09:29.802Z,2.58
2022-12-28T07:11:57.807Z,2.45
2022-12-28T07:14:27.178Z,3.08
2022-12-28T07:16:55.392Z,2.40
2022-12-28T07:19:23.424Z,2.70
2022-12-28T07:21:51.527Z,2.88
2022-12-28T07:24:19.579Z,3.28
2022-12-28T07:26:47.710Z,2.75
2022-12-28T07:29:15.868Z,2.97
2022-12-28T07:31:46.091Z,2.50
2022-12-28T07:34:17.793Z,2.90
2022-12-28T07:36:45.994Z,2.97
2022-12-28T07:39:13.993Z,3.08
2022-12-28T07:41:42.162Z,3.25
2022-12-28T07:44:10.188Z,3.75
2022-12-28T07:46:38.862Z,3.42
2022-12-28T07:49:08.292Z,2.75
2022-12-28T07:51:38.022Z,3.45
2022-12-28T07:54:06.662Z,3.70
2022-12-28T07:59:05.000Z,4.40
2022-12-28T08:01:35.308Z,4.18
2022-12-28T08:04:05.311Z,3.90
2022-12-28T08:06:36.572Z,4.15
2022-12-28T08:09:05.479Z,4.43
2022-12-28T08:11:35.678Z,4.05
2022-12-28T08:14:04.434Z,4.40
2022-12-28T08:16:33.955Z,4.03
2022-12-28T08:19:02.714Z,4.03
2022-12-28T08:21:32.406Z,4.20
2022-12-28T08:24:02.566Z,3.67
2022-12-28T08:26:32.303Z,3.97
2022-12-28T08:29:02.561Z,4.03
2022-12-28T08:31:32.011Z,2.92
2022-12-28T08:34:01.265Z,3.92
2022-12-28T08:36:29.548Z,3.45
2022-12-28T08:38:58.642Z,3.85
2022-12-28T08:41:29.284Z,4.50
2022-12-28T08:43:57.923Z,3.03
2022-12-28T08:46:27.579Z,2.80
2022-12-28T08:48:57.805Z,3.50
2022-12-28T08:51:27.243Z,3.42
2022-12-28T08:53:55.583Z,3.35
2022-12-28T08:56:25.160Z,3.45
2022-12-28T08:58:55.138Z,3.17
2022-12-28T09:01:25.760Z,3.22
2022-12-28T09:03:55.605Z,2.92
2022-12-28T09:06:25.368Z,3.45
2022-12-28T09:09:10.320Z,3.15
2022-12-28T09:11:39.398Z,3.03
2022-12-28T09:14:10.099Z,3.00
2022-12-28T09:16:39.417Z,3.25
2022-12-28T09:19:09.351Z,2.90
2022-12-28T09:21:39.133Z,3.00
2022-12-28T09:24:08.124Z,3.90
2022-12-28T09:26:37.822Z,2.65
2022-12-28T09:29:09.398Z,3.30
2022-12-28T09:31:38.571Z,3.00
2022-12-28T09:36:55.221Z,2.83
2022-12-28T09:39:24.946Z,2.55
2022-12-28T09:41:56.010Z,3.38
2022-12-28T09:44:39.731Z,3.30
2022-12-28T09:47:17.197Z,2.90
2022-12-28T09:49:47.966Z,2.55
2022-12-28T09:52:27.320Z,2.53
2022-12-28T09:54:55.693Z,2.90
2022-12-28T09:57:24.035Z,3.25
2022-12-28T09:59:54.254Z,2.70
2022-12-28T10:02:26.590Z,3.22
2022-12-28T10:07:23.050Z,5.50
2022-12-28T10:09:51.224Z,7.38
2022-12-28T10:12:21.576Z,3.03
2022-12-28T10:14:50.330Z,2.50
2022-12-28T10:17:24.037Z,3.72
2022-12-28T10:19:52.548Z,3.65
2022-12-28T10:22:21.975Z,2.83
2022-12-28T10:24:50.296Z,2.53
2022-12-28T10:27:22.052Z,2.58
2022-12-28T10:29:51.436Z,3.88
2022-12-28T10:32:21.327Z,2.58
2022-12-28T10:34:56.919Z,2.92
2022-12-28T10:37:26.534Z,2.63
2022-12-28T10:39:56.823Z,2.63
2022-12-28T10:42:27.738Z,2.55
2022-12-28T10:45:01.807Z,2.55
2022-12-28T10:47:35.539Z,2.55
2022-12-28T10:52:58.151Z,2.60
2022-12-28T10:55:33.254Z,2.00
2022-12-28T10:58:29.981Z,2.20
2022-12-28T11:01:01.375Z,2.47
2022-12-28T11:03:35.258Z,2.42
2022-12-28T11:06:26.827Z,2.13
2022-12-28T11:09:16.785Z,2.05
2022-12-28T11:11:46.800Z,2.20
2022-12-28T11:14:19.292Z,2.35
2022-12-28T11:16:47.456Z,2.40
2022-12-28T11:19:17.531Z,2.30
2022-12-28T11:21:45.704Z,2.40
2022-12-28T11:24:15.982Z,2.03
2022-12-28T11:26:45.784Z,2.60
2022-12-28T11:29:15.713Z,2.58
2022-12-28T11:31:47.022Z,2.15
2022-12-28T11:34:19.916Z,2.20
2022-12-28T11:36:48.824Z,2.42
2022-12-28T11:39:42.756Z,2.20
2022-12-28T11:42:38.041Z,2.50
2022-12-28T11:44:59.162Z,2.13
2022-12-28T11:47:33.279Z,2.22
2022-12-28T11:50:49.912Z,2.17
2022-12-28T11:53:24.561Z,2.20
2022-12-28T11:56:10.829Z,2.15
2022-12-28T11:59:03.469Z,2.42
2022-12-28T12:04:40.476Z,2.38
2022-12-28T12:07:23.655Z,2.58
2022-12-28T12:10:15.794Z,2.33
2022-12-28T12:12:52.205Z,2.58
2022-12-28T12:15:22.425Z,2.00
2022-12-28T12:17:54.762Z,1.98
2022-12-28T12:22:56.273Z,2.13
2022-12-28T12:25:30.462Z,2.00
2022-12-28T12:28:00.533Z,2.40
2022-12-28T12:30:30.625Z,1.88
2022-12-28T12:33:01.374Z,2.00
2022-12-28T12:35:31.871Z,1.95
2022-12-28T12:38:04.502Z,2.30
2022-12-28T12:40:55.319Z,2.20
2022-12-28T12:43:30.269Z,2.55
2022-12-28T12:46:09.435Z,2.30
2022-12-28T12:48:47.300Z,2.08
2022-12-28T12:51:23.661Z,2.38
2022-12-28T12:54:06.652Z,2.42
2022-12-28T12:56:42.532Z,2.42
2022-12-28T12:59:23.160Z,2.10
2022-12-28T13:01:55.770Z,2.33
2022-12-28T13:04:26.418Z,2.03
2022-12-28T13:06:58.260Z,2.50
2022-12-28T13:09:28.138Z,2.58
2022-12-28T13:11:57.968Z,1.90
2022-12-28T13:14:26.193Z,1.85
2022-12-28T13:16:55.552Z,1.77
2022-12-28T13:19:25.649Z,2.20
2022-12-28T13:21:54.258Z,2.00
2022-12-28T13:24:23.715Z,1.80
2022-12-28T13:26:52.355Z,2.28
2022-12-28T13:29:23.789Z,2.15
2022-12-28T13:31:52.333Z,1.83
2022-12-28T13:34:23.521Z,2.20
2022-12-28T13:36:54.507Z,1.98
2022-12-28T13:39:23.093Z,2.33
2022-12-28T13:41:52.424Z,1.95
2022-12-28T13:44:33.811Z,2.38
2022-12-28T13:47:05.817Z,2.20
2022-12-28T13:49:37.849Z,2.40
2022-12-28T13:52:09.791Z,1.90
2022-12-28T13:54:38.982Z,1.90
2022-12-28T13:57:44.679Z,2.30
2022-12-28T13:59:57.498Z,2.92
2022-12-28T14:02:27.376Z,2.70
2022-12-28T14:04:55.976Z,2.20
2022-12-28T14:07:26.769Z,2.15
2022-12-28T14:09:55.197Z,2.80
2022-12-28T14:12:23.620Z,2.40
2022-12-28T14:14:52.130Z,2.75
2022-12-28T14:17:21.989Z,2.33
2022-12-28T14:19:50.240Z,2.53
2022-12-28T14:22:32.203Z,2.92
2022-12-28T14:25:06.069Z,2.80
2022-12-28T14:27:36.709Z,2.70
2022-12-28T14:30:06.912Z,3.13
2022-12-28T14:35:27.393Z,2.70
2022-12-28T14:37:56.845Z,2.33
2022-12-28T14:40:30.540Z,2.63
2022-12-28T14:42:59.229Z,2.67
2022-12-28T14:48:35.135Z,2.33
2022-12-28T14:51:06.437Z,2.22
2022-12-28T14:53:35.037Z,2.57
2022-12-28T14:56:06.077Z,2.60
2022-12-28T14:58:40.426Z,2.77
2022-12-28T15:00:25.275Z,2.50
2022-12-28T15:01:10.507Z,3.08
2022-12-28T15:03:54.366Z,2.90
2022-12-28T15:06:23.184Z,2.92
2022-12-28T15:08:51.308Z,2.47
2022-12-28T15:11:19.925Z,2.67
2022-12-28T15:13:48.502Z,2.60
2022-12-28T15:16:18.814Z,2.60
2022-12-28T15:18:47.095Z,2.22
2022-12-28T15:21:18.650Z,2.67
2022-12-28T15:23:49.886Z,2.60
2022-12-28T15:26:18.237Z,3.08
2022-12-28T15:28:46.326Z,2.83
2022-12-28T15:31:16.992Z,2.65
2022-12-28T15:33:45.908Z,2.72
2022-12-28T15:36:17.798Z,2.58
2022-12-28T15:41:31.807Z,2.25
2022-12-28T15:43:59.835Z,2.70
2022-12-28T15:46:27.970Z,2.67
2022-12-28T15:48:56.014Z,2.38
2022-12-28T15:51:25.310Z,2.00
2022-12-28T15:53:53.282Z,1.83
2022-12-28T15:56:22.662Z,2.40
2022-12-28T15:58:53.636Z,2.28
2022-12-28T16:01:22.147Z,2.45
2022-12-28T16:03:50.952Z,2.25
2022-12-28T16:06:19.383Z,2.60
2022-12-28T16:08:48.971Z,2.30
2022-12-28T16:11:19.041Z,2.38
2022-12-28T16:13:52.064Z,2.28
2022-12-28T16:16:20.703Z,2.17
2022-12-28T16:18:49.132Z,3.13
2022-12-28T16:21:17.775Z,2.65
2022-12-28T16:23:47.652Z,2.40
2022-12-28T16:26:15.771Z,2.80
2022-12-28T16:28:44.057Z,2.15
2022-12-28T16:31:23.125Z,2.20
2022-12-28T16:33:54.687Z,2.03
2022-12-28T16:36:23.496Z,2.50
2022-12-28T16:38:52.954Z,2.28
2022-12-28T16:41:21.459Z,2.17
2022-12-28T16:43:49.539Z,2.22
2022-12-28T16:46:18.246Z,1.90
2022-12-28T16:48:46.301Z,2.05
2022-12-28T16:51:14.389Z,2.35
2022-12-28T16:53:42.540Z,2.22
2022-12-28T16:56:12.022Z,2.10
2022-12-28T16:58:41.699Z,2.17
2022-12-28T17:01:12.145Z,2.00
2022-12-28T17:03:42.445Z,2.30
2022-12-28T17:06:10.747Z,3.75
2022-12-28T17:08:38.777Z,2.20
2022-12-28T17:11:10.122Z,2.60
2022-12-28T17:13:40.460Z,2.55
2022-12-28T17:16:08.823Z,2.60
2022-12-28T17:18:37.173Z,2.13
2022-12-28T17:21:07.440Z,2.50
2022-12-28T17:23:35.851Z,2.88
2022-12-28T17:26:03.935Z,1.90
2022-12-28T17:28:31.908Z,2.42
2022-12-28T17:31:10.358Z,2.47
2022-12-28T17:33:40.267Z,2.45
2022-12-28T17:36:09.152Z,2.00
2022-12-28T17:38:37.667Z,2.30
2022-12-28T17:41:09.817Z,2.33
2022-12-28T17:43:38.219Z,2.30
2022-12-28T17:46:08.027Z,1.90
2022-12-28T17:48:35.995Z,2.50
2022-12-28T17:51:11.035Z,2.47
2022-12-28T17:53:41.820Z,1.95
2022-12-28T17:56:12.221Z,2.00
2022-12-28T17:58:40.655Z,2.38
2022-12-28T18:01:11.168Z,2.30
2022-12-28T18:03:39.884Z,2.10
2022-12-28T18:06:08.168Z,1.92
2022-12-28T18:08:36.199Z,2.10
2022-12-28T18:11:04.231Z,1.88
2022-12-28T18:13:32.427Z,1.90
2022-12-28T18:16:00.601Z,1.88
2022-12-28T18:18:29.998Z,2.15
2022-12-28T18:20:58.926Z,1.92
2022-12-28T18:23:28.038Z,2.10
2022-12-28T18:26:02.321Z,1.98
2022-12-28T18:28:30.403Z,2.15
2022-12-28T18:31:02.084Z,1.85
2022-12-28T18:33:32.166Z,2.05
2022-12-28T18:36:00.439Z,2.03
2022-12-28T18:38:28.615Z,2.38
2022-12-28T18:40:58.462Z,2.10
2022-12-28T18:43:26.812Z,2.00
2022-12-28T18:45:57.238Z,2.85
2022-12-28T18:48:26.218Z,2.00
2022-12-28T18:50:57.024Z,1.92
2022-12-28T18:53:25.986Z,2.00
2022-12-28T18:55:58.248Z,2.20
2022-12-28T18:58:26.742Z,2.35
2022-12-28T19:00:54.797Z,2.30
2022-12-28T19:03:23.214Z,2.70
2022-12-28T19:06:02.660Z,2.20
2022-12-28T19:08:31.894Z,2.35
2022-12-28T19:11:00.228Z,2.35
2022-12-28T19:13:28.586Z,2.30
2022-12-28T19:15:56.857Z,2.38
2022-12-28T19:18:24.991Z,2.80
2022-12-28T19:20:58.686Z,2.47
2022-12-28T19:23:26.979Z,2.03
2022-12-28T19:25:59.417Z,2.40
2022-12-28T19:28:28.695Z,2.22
2022-12-28T19:31:02.701Z,2.33
2022-12-28T19:33:33.266Z,2.20
2022-12-28T19:36:02.716Z,2.38
2022-12-28T19:38:30.755Z,2.90
2022-12-28T19:40:58.838Z,2.60
2022-12-28T19:43:26.818Z,3.13
2022-12-28T19:46:02.263Z,2.22
2022-12-28T19:48:33.801Z,3.20
2022-12-28T19:51:03.408Z,3.08
2022-12-28T19:53:31.476Z,2.55
2022-12-28T19:55:59.850Z,2.65
2022-12-28T19:58:28.037Z,2.88
2022-12-28T20:00:56.848Z,2.38
2022-12-28T20:03:26.732Z,2.40
2022-12-28T20:05:54.798Z,2.00
2022-12-28T20:08:24.079Z,2.50
2022-12-28T20:10:55.983Z,1.95
2022-12-28T20:13:24.277Z,2.15
2022-12-28T20:15:52.550Z,2.70
2022-12-28T20:18:20.619Z,2.47
2022-12-28T20:21:17.820Z,2.05
2022-12-28T20:23:38.125Z,2.50
2022-12-28T20:26:06.630Z,1.83
2022-12-28T20:28:35.302Z,2.10
2022-12-28T20:31:06.798Z,2.08
2022-12-28T20:33:36.363Z,2.03
2022-12-28T20:36:06.538Z,2.67
2022-12-28T20:38:35.501Z,2.20
2022-12-28T20:41:06.476Z,1.83
2022-12-28T20:43:34.389Z,2.00
2022-12-28T20:46:02.791Z,1.88
2022-12-28T20:48:30.919Z,2.05
2022-12-28T20:51:00.008Z,1.80
2022-12-28T20:53:28.596Z,1.95
2022-12-28T20:56:08.317Z,1.80
2022-12-28T20:58:36.518Z,2.10
2022-12-28T21:01:05.087Z,1.75
2022-12-28T21:03:33.531Z,2.35
2022-12-28T21:06:01.619Z,1.77
2022-12-28T21:08:31.008Z,2.13
2022-12-28T21:10:59.556Z,2.22
2022-12-28T21:13:29.444Z,1.70
2022-12-28T21:15:58.327Z,2.35
2022-12-28T21:18:26.546Z,2.25
2022-12-28T21:20:57.383Z,1.95
2022-12-28T21:23:25.652Z,2.30
2022-12-28T21:25:53.664Z,2.03
2022-12-28T21:28:21.898Z,2.95
2022-12-28T21:30:55.578Z,2.28
2022-12-28T21:33:24.667Z,2.58
2022-12-28T21:36:00.104Z,2.13
2022-12-28T21:38:28.339Z,2.60
2022-12-28T21:41:01.091Z,2.05
2022-12-28T21:43:29.225Z,1.90
2022-12-28T21:46:02.660Z,2.38
2022-12-28T21:48:31.704Z,2.30
2022-12-28T21:51:05.201Z,2.25
2022-12-28T21:53:33.457Z,2.47
2022-12-28T21:56:01.452Z,2.60
2022-12-28T21:58:29.436Z,1.90
2022-12-28T22:01:19.253Z,2.00
2022-12-28T22:04:04.789Z,2.00
2022-12-28T22:06:32.860Z,2.03
2022-12-28T22:09:20.993Z,1.70
2022-12-28T22:12:07.050Z,1.83
2022-12-28T22:14:35.064Z,2.20
2022-12-28T22:17:06.365Z,2.20
2022-12-28T22:19:37.640Z,1.83
2022-12-28T22:22:05.675Z,1.88
2022-12-28T22:24:33.840Z,2.00
2022-12-28T22:27:01.813Z,1.80
2022-12-28T22:29:30.816Z,1.88
2022-12-28T22:31:59.878Z,2.10
2022-12-28T22:34:29.648Z,1.48
2022-12-28T22:36:57.733Z,1.70
2022-12-28T22:39:25.765Z,1.67
2022-12-28T22:41:53.779Z,1.80
2022-12-28T22:44:21.827Z,2.15
2022-12-28T22:46:49.793Z,1.65
2022-12-28T22:49:18.071Z,1.80
2022-12-28T22:51:47.766Z,1.75
2022-12-28T22:54:15.939Z,1.92
2022-12-28T22:56:43.910Z,1.80
2022-12-28T22:59:15.500Z,1.98
2022-12-28T23:01:44.482Z,1.90
2022-12-28T23:04:12.645Z,2.03
2022-12-28T23:06:40.716Z,2.03
2022-12-28T23:09:10.081Z,2.45
2022-12-28T23:11:39.404Z,2.05
2022-12-28T23:14:30.020Z,1.73
2022-12-28T23:16:58.699Z,2.08
2022-12-28T23:19:44.939Z,1.75
2022-12-28T23:22:32.314Z,1.88
2022-12-28T23:25:19.367Z,2.33
2022-12-28T23:27:47.822Z,2.13
2022-12-28T23:30:17.928Z,1.75
2022-12-28T23:32:46.434Z,1.98
2022-12-28T23:35:14.486Z,2.15
2022-12-28T23:37:42.992Z,1.83
2022-12-28T23:40:14.368Z,2.10
2022-12-28T23:42:43.589Z,2.10
2022-12-28T23:45:13.357Z,1.73
2022-12-28T23:47:41.847Z,2.08
2022-12-28T23:50:10.973Z,2.10
2022-12-28T23:52:39.405Z,2.50
2022-12-28T23:55:08.693Z,2.92
2022-12-28T23:57:38.620Z,1.98
